sensor_id;sensor_type;location;lat;lon;timestamp;temperature;humidity
4596;DHT22;2310;49.978;8.742;2023-07-13T00:03:43;22.30;70.50
4596;DHT22;2310;49.978;8.742;2023-07-13T00:07:44;22.30;71.00
4596;DHT22;2310;49.978;8.742;2023-07-13T00:11:53;22.30;69.80
4596;DHT22;2310;49.978;8.742;2023-07-13T00:15:56;22.20;70.40
4596;DHT22;2310;49.978;8.742;2023-07-13T00:19:58;22.30;69.80
4596;DHT22;2310;49.978;8.742;2023-07-13T00:23:59;22.20;69.10
4596;DHT22;2310;49.978;8.742;2023-07-13T00:28:01;22.30;70.10
4596;DHT22;2310;49.978;8.742;2023-07-13T00:32:04;22.30;71.10
4596;DHT22;2310;49.978;8.742;2023-07-13T00:36:06;22.30;68.90
4596;DHT22;2310;49.978;8.742;2023-07-13T00:40:09;22.30;70.80
4596;DHT22;2310;49.978;8.742;2023-07-13T00:44:16;22.20;70.20
4596;DHT22;2310;49.978;8.742;2023-07-13T00:48:25;22.20;70.10
4596;DHT22;2310;49.978;8.742;2023-07-13T00:52:24;22.20;69.70
4596;DHT22;2310;49.978;8.742;2023-07-13T00:56:26;22.20;68.10
4596;DHT22;2310;49.978;8.742;2023-07-13T01:00:29;22.10;68.00
4596;DHT22;2310;49.978;8.742;2023-07-13T01:04:30;22.10;68.20
4596;DHT22;2310;49.978;8.742;2023-07-13T01:08:32;21.90;67.90
4596;DHT22;2310;49.978;8.742;2023-07-13T01:12:34;21.80;68.70
4596;DHT22;2310;49.978;8.742;2023-07-13T01:16:36;21.90;67.90
4596;DHT22;2310;49.978;8.742;2023-07-13T01:20:39;21.80;67.10
4596;DHT22;2310;49.978;8.742;2023-07-13T01:24:43;21.80;69.10
4596;DHT22;2310;49.978;8.742;2023-07-13T01:28:45;21.80;68.40
4596;DHT22;2310;49.978;8.742;2023-07-13T01:32:46;21.70;69.40
4596;DHT22;2310;49.978;8.742;2023-07-13T01:36:48;21.70;70.10
4596;DHT22;2310;49.978;8.742;2023-07-13T01:40:51;21.70;71.10
4596;DHT22;2310;49.978;8.742;2023-07-13T01:44:53;21.70;71.00
4596;DHT22;2310;49.978;8.742;2023-07-13T01:48:54;21.60;70.40
4596;DHT22;2310;49.978;8.742;2023-07-13T01:52:55;21.60;71.20
4596;DHT22;2310;49.978;8.742;2023-07-13T01:56:57;21.60;72.70
4596;DHT22;2310;49.978;8.742;2023-07-13T02:00:58;21.60;72.60
4596;DHT22;2310;49.978;8.742;2023-07-13T02:05:00;21.50;74.60
4596;DHT22;2310;49.978;8.742;2023-07-13T02:09:01;21.50;76.10
4596;DHT22;2310;49.978;8.742;2023-07-13T02:13:05;21.50;75.80
4596;DHT22;2310;49.978;8.742;2023-07-13T02:17:07;21.40;76.80
4596;DHT22;2310;49.978;8.742;2023-07-13T02:21:08;21.30;78.10
4596;DHT22;2310;49.978;8.742;2023-07-13T02:25:09;21.20;80.50
4596;DHT22;2310;49.978;8.742;2023-07-13T02:29:11;21.20;81.80
4596;DHT22;2310;49.978;8.742;2023-07-13T02:33:12;21.10;84.20
4596;DHT22;2310;49.978;8.742;2023-07-13T02:37:13;21.00;85.30
4596;DHT22;2310;49.978;8.742;2023-07-13T02:41:15;20.90;86.60
4596;DHT22;2310;49.978;8.742;2023-07-13T02:45:16;20.80;91.00
4596;DHT22;2310;49.978;8.742;2023-07-13T02:49:17;20.70;92.00
4596;DHT22;2310;49.978;8.742;2023-07-13T02:53:19;20.10;95.80
4596;DHT22;2310;49.978;8.742;2023-07-13T02:57:20;20.20;98.50
4596;DHT22;2310;49.978;8.742;2023-07-13T03:01:22;20.30;97.50
4596;DHT22;2310;49.978;8.742;2023-07-13T03:05:24;20.30;98.20
4596;DHT22;2310;49.978;8.742;2023-07-13T03:09:25;20.40;98.00
4596;DHT22;2310;49.978;8.742;2023-07-13T03:13:27;20.30;97.10
4596;DHT22;2310;49.978;8.742;2023-07-13T03:17:28;19.60;99.90
4596;DHT22;2310;49.978;8.742;2023-07-13T03:21:29;19.50;99.90
4596;DHT22;2310;49.978;8.742;2023-07-13T03:25:31;19.70;99.90
4596;DHT22;2310;49.978;8.742;2023-07-13T03:29:32;19.80;99.90
4596;DHT22;2310;49.978;8.742;2023-07-13T03:33:34;19.80;99.90
4596;DHT22;2310;49.978;8.742;2023-07-13T03:37:36;19.90;99.90
4596;DHT22;2310;49.978;8.742;2023-07-13T03:41:39;19.80;99.90
4596;DHT22;2310;49.978;8.742;2023-07-13T03:45:41;19.80;99.90
4596;DHT22;2310;49.978;8.742;2023-07-13T03:49:42;19.80;99.90
4596;DHT22;2310;49.978;8.742;2023-07-13T03:53:45;19.80;99.90
4596;DHT22;2310;49.978;8.742;2023-07-13T03:57:47;19.80;99.90
4596;DHT22;2310;49.978;8.742;2023-07-13T04:01:49;19.80;99.90
4596;DHT22;2310;49.978;8.742;2023-07-13T04:05:50;19.70;99.90
4596;DHT22;2310;49.978;8.742;2023-07-13T04:09:52;19.80;99.90
4596;DHT22;2310;49.978;8.742;2023-07-13T04:13:53;19.80;99.90
4596;DHT22;2310;49.978;8.742;2023-07-13T04:17:55;19.80;99.90
4596;DHT22;2310;49.978;8.742;2023-07-13T04:21:56;19.80;99.90
4596;DHT22;2310;49.978;8.742;2023-07-13T04:25:57;19.80;99.90
4596;DHT22;2310;49.978;8.742;2023-07-13T04:29:59;19.90;99.90
4596;DHT22;2310;49.978;8.742;2023-07-13T04:34:00;19.90;99.90
4596;DHT22;2310;49.978;8.742;2023-07-13T04:38:02;20.20;99.90
4596;DHT22;2310;49.978;8.742;2023-07-13T04:42:04;20.40;99.90
4596;DHT22;2310;49.978;8.742;2023-07-13T04:46:08;20.80;97.80
4596;DHT22;2310;49.978;8.742;2023-07-13T04:50:13;21.20;98.10
4596;DHT22;2310;49.978;8.742;2023-07-13T04:54:16;21.50;95.80
4596;DHT22;2310;49.978;8.742;2023-07-13T04:58:18;21.70;94.40
4596;DHT22;2310;49.978;8.742;2023-07-13T05:02:21;22.00;94.90
4596;DHT22;2310;49.978;8.742;2023-07-13T05:06:22;22.00;91.20
4596;DHT22;2310;49.978;8.742;2023-07-13T05:10:24;22.30;93.60
4596;DHT22;2310;49.978;8.742;2023-07-13T05:14:26;22.40;94.60
4596;DHT22;2310;49.978;8.742;2023-07-13T05:18:28;22.30;93.30
4596;DHT22;2310;49.978;8.742;2023-07-13T05:22:30;22.20;93.70
4596;DHT22;2310;49.978;8.742;2023-07-13T05:26:31;22.30;87.20
4596;DHT22;2310;49.978;8.742;2023-07-13T05:30:33;22.70;79.10
4596;DHT22;2310;49.978;8.742;2023-07-13T05:34:34;23.00;80.30
4596;DHT22;2310;49.978;8.742;2023-07-13T05:38:36;23.30;74.00
4596;DHT22;2310;49.978;8.742;2023-07-13T05:42:38;23.80;71.20
4596;DHT22;2310;49.978;8.742;2023-07-13T05:46:39;23.70;67.30
4596;DHT22;2310;49.978;8.742;2023-07-13T05:50:40;23.10;70.60
4596;DHT22;2310;49.978;8.742;2023-07-13T05:54:42;23.20;67.90
4596;DHT22;2310;49.978;8.742;2023-07-13T05:58:43;22.70;70.10
4596;DHT22;2310;49.978;8.742;2023-07-13T06:02:45;22.50;69.70
4596;DHT22;2310;49.978;8.742;2023-07-13T06:06:47;22.70;65.60
4596;DHT22;2310;49.978;8.742;2023-07-13T06:10:48;23.00;70.00
4596;DHT22;2310;49.978;8.742;2023-07-13T06:14:50;23.20;65.80
4596;DHT22;2310;49.978;8.742;2023-07-13T06:18:51;23.10;63.00
4596;DHT22;2310;49.978;8.742;2023-07-13T06:22:53;23.00;64.90
4596;DHT22;2310;49.978;8.742;2023-07-13T06:26:54;23.30;64.90
4596;DHT22;2310;49.978;8.742;2023-07-13T06:30:56;23.20;61.40
4596;DHT22;2310;49.978;8.742;2023-07-13T06:34:57;23.20;61.90
4596;DHT22;2310;49.978;8.742;2023-07-13T06:38:59;22.90;63.90
4596;DHT22;2310;49.978;8.742;2023-07-13T06:43:02;23.40;63.70
4596;DHT22;2310;49.978;8.742;2023-07-13T06:47:04;23.40;62.60
4596;DHT22;2310;49.978;8.742;2023-07-13T06:51:06;23.40;60.40
4596;DHT22;2310;49.978;8.742;2023-07-13T06:55:08;23.10;60.80
4596;DHT22;2310;49.978;8.742;2023-07-13T06:59:09;23.30;61.50
4596;DHT22;2310;49.978;8.742;2023-07-13T07:03:11;23.50;62.30
4596;DHT22;2310;49.978;8.742;2023-07-13T07:07:13;23.70;61.40
4596;DHT22;2310;49.978;8.742;2023-07-13T07:11:18;23.50;61.40
4596;DHT22;2310;49.978;8.742;2023-07-13T07:15:19;23.20;59.90
4596;DHT22;2310;49.978;8.742;2023-07-13T07:19:21;23.50;60.90
4596;DHT22;2310;49.978;8.742;2023-07-13T07:23:22;23.40;60.20
4596;DHT22;2310;49.978;8.742;2023-07-13T07:27:24;23.80;58.60
4596;DHT22;2310;49.978;8.742;2023-07-13T07:31:27;23.60;58.50
4596;DHT22;2310;49.978;8.742;2023-07-13T07:35:31;23.80;58.20
4596;DHT22;2310;49.978;8.742;2023-07-13T07:39:34;23.90;57.90
4596;DHT22;2310;49.978;8.742;2023-07-13T07:43:35;24.10;58.20
4596;DHT22;2310;49.978;8.742;2023-07-13T07:47:37;24.10;55.70
4596;DHT22;2310;49.978;8.742;2023-07-13T07:51:39;24.30;55.50
4596;DHT22;2310;49.978;8.742;2023-07-13T07:55:41;24.40;54.50
4596;DHT22;2310;49.978;8.742;2023-07-13T07:59:44;24.30;55.00
4596;DHT22;2310;49.978;8.742;2023-07-13T08:03:48;24.40;54.80
4596;DHT22;2310;49.978;8.742;2023-07-13T08:07:51;24.60;54.50
4596;DHT22;2310;49.978;8.742;2023-07-13T08:11:52;24.80;53.80
4596;DHT22;2310;49.978;8.742;2023-07-13T08:15:57;24.80;54.20
4596;DHT22;2310;49.978;8.742;2023-07-13T08:20:00;25.30;53.00
4596;DHT22;2310;49.978;8.742;2023-07-13T08:24:01;25.40;53.40
4596;DHT22;2310;49.978;8.742;2023-07-13T08:28:03;25.50;51.10
4596;DHT22;2310;49.978;8.742;2023-07-13T08:32:06;25.00;50.50
4596;DHT22;2310;49.978;8.742;2023-07-13T08:36:09;25.40;51.40
4596;DHT22;2310;49.978;8.742;2023-07-13T08:40:11;25.70;50.70
4596;DHT22;2310;49.978;8.742;2023-07-13T08:44:27;25.90;49.50
4596;DHT22;2310;49.978;8.742;2023-07-13T08:48:36;25.40;49.30
4596;DHT22;2310;49.978;8.742;2023-07-13T08:52:41;25.70;50.40
4596;DHT22;2310;49.978;8.742;2023-07-13T08:56:44;25.90;49.00
4596;DHT22;2310;49.978;8.742;2023-07-13T09:05:17;26.30;48.80
4596;DHT22;2310;49.978;8.742;2023-07-13T09:09:35;27.00;47.40
4596;DHT22;2310;49.978;8.742;2023-07-13T09:13:37;27.20;46.80
4596;DHT22;2310;49.978;8.742;2023-07-13T09:17:45;27.10;46.00
4596;DHT22;2310;49.978;8.742;2023-07-13T09:21:45;27.60;45.80
4596;DHT22;2310;49.978;8.742;2023-07-13T09:25:49;27.60;44.10
4596;DHT22;2310;49.978;8.742;2023-07-13T09:30:03;27.80;43.80
4596;DHT22;2310;49.978;8.742;2023-07-13T09:34:08;27.90;43.10
4596;DHT22;2310;49.978;8.742;2023-07-13T09:38:16;27.90;43.30
4596;DHT22;2310;49.978;8.742;2023-07-13T09:42:20;28.10;43.40
4596;DHT22;2310;49.978;8.742;2023-07-13T09:46:23;27.70;41.70
4596;DHT22;2310;49.978;8.742;2023-07-13T09:50:24;27.20;41.90
4596;DHT22;2310;49.978;8.742;2023-07-13T09:54:26;28.10;41.30
4596;DHT22;2310;49.978;8.742;2023-07-13T09:58:30;28.30;40.10
4596;DHT22;2310;49.978;8.742;2023-07-13T10:02:35;28.60;41.00
4596;DHT22;2310;49.978;8.742;2023-07-13T10:06:36;28.60;39.90
4596;DHT22;2310;49.978;8.742;2023-07-13T10:10:40;29.00;40.30
4596;DHT22;2310;49.978;8.742;2023-07-13T10:14:42;28.80;39.50
4596;DHT22;2310;49.978;8.742;2023-07-13T10:18:50;29.10;38.60
4596;DHT22;2310;49.978;8.742;2023-07-13T10:23:01;29.00;39.00
4596;DHT22;2310;49.978;8.742;2023-07-13T10:27:18;28.80;38.90
4596;DHT22;2310;49.978;8.742;2023-07-13T10:31:21;29.30;38.40
4596;DHT22;2310;49.978;8.742;2023-07-13T10:35:22;29.90;37.00
4596;DHT22;2310;49.978;8.742;2023-07-13T10:39:27;29.80;36.30
4596;DHT22;2310;49.978;8.742;2023-07-13T10:43:47;29.50;35.40
4596;DHT22;2310;49.978;8.742;2023-07-13T10:47:52;29.40;35.90
4596;DHT22;2310;49.978;8.742;2023-07-13T10:51:56;29.20;36.70
4596;DHT22;2310;49.978;8.742;2023-07-13T10:56:28;28.90;36.80
4596;DHT22;2310;49.978;8.742;2023-07-13T11:00:31;28.60;38.10
4596;DHT22;2310;49.978;8.742;2023-07-13T11:04:48;29.70;36.60
4596;DHT22;2310;49.978;8.742;2023-07-13T11:08:55;30.30;36.50
4596;DHT22;2310;49.978;8.742;2023-07-13T11:12:57;30.20;34.70
4596;DHT22;2310;49.978;8.742;2023-07-13T11:17:23;30.50;36.00
4596;DHT22;2310;49.978;8.742;2023-07-13T11:21:15;30.30;33.80
4596;DHT22;2310;49.978;8.742;2023-07-13T11:25:30;29.40;34.60
4596;DHT22;2310;49.978;8.742;2023-07-13T11:29:38;28.80;35.40
4596;DHT22;2310;49.978;8.742;2023-07-13T11:37:46;29.40;34.50
4596;DHT22;2310;49.978;8.742;2023-07-13T11:41:53;29.60;35.20
4596;DHT22;2310;49.978;8.742;2023-07-13T11:46:11;30.70;34.10
4596;DHT22;2310;49.978;8.742;2023-07-13T11:50:03;30.40;33.00
4596;DHT22;2310;49.978;8.742;2023-07-13T11:54:23;30.30;33.50
4596;DHT22;2310;49.978;8.742;2023-07-13T11:58:26;30.00;32.80
4596;DHT22;2310;49.978;8.742;2023-07-13T12:02:34;29.50;34.00
4596;DHT22;2310;49.978;8.742;2023-07-13T12:06:36;29.20;35.20
4596;DHT22;2310;49.978;8.742;2023-07-13T12:10:39;29.20;36.20
4596;DHT22;2310;49.978;8.742;2023-07-13T12:14:41;29.40;36.10
4596;DHT22;2310;49.978;8.742;2023-07-13T12:18:43;29.70;35.20
4596;DHT22;2310;49.978;8.742;2023-07-13T12:22:50;29.20;35.30
4596;DHT22;2310;49.978;8.742;2023-07-13T12:27:03;29.00;36.60
4596;DHT22;2310;49.978;8.742;2023-07-13T12:31:17;29.20;35.10
4596;DHT22;2310;49.978;8.742;2023-07-13T12:35:16;29.60;34.60
4596;DHT22;2310;49.978;8.742;2023-07-13T12:39:25;29.70;34.70
4596;DHT22;2310;49.978;8.742;2023-07-13T12:43:30;29.70;34.50
4596;DHT22;2310;49.978;8.742;2023-07-13T12:47:41;29.40;35.00
4596;DHT22;2310;49.978;8.742;2023-07-13T12:51:43;29.30;34.50
4596;DHT22;2310;49.978;8.742;2023-07-13T12:55:53;28.60;34.60
4596;DHT22;2310;49.978;8.742;2023-07-13T12:59:55;28.10;35.20
4596;DHT22;2310;49.978;8.742;2023-07-13T13:04:01;28.20;36.00
4596;DHT22;2310;49.978;8.742;2023-07-13T13:08:03;28.40;35.60
4596;DHT22;2310;49.978;8.742;2023-07-13T13:12:05;28.30;36.40
4596;DHT22;2310;49.978;8.742;2023-07-13T13:20:22;27.80;36.30
4596;DHT22;2310;49.978;8.742;2023-07-13T13:24:26;27.60;37.90
4596;DHT22;2310;49.978;8.742;2023-07-13T13:28:28;27.60;37.50
4596;DHT22;2310;49.978;8.742;2023-07-13T13:32:30;27.40;37.60
4596;DHT22;2310;49.978;8.742;2023-07-13T13:36:31;27.40;38.00
4596;DHT22;2310;49.978;8.742;2023-07-13T13:40:32;27.50;37.60
4596;DHT22;2310;49.978;8.742;2023-07-13T13:44:35;27.50;37.90
4596;DHT22;2310;49.978;8.742;2023-07-13T13:48:36;27.70;38.10
4596;DHT22;2310;49.978;8.742;2023-07-13T13:52:40;27.80;38.10
4596;DHT22;2310;49.978;8.742;2023-07-13T13:56:43;27.90;37.70
4596;DHT22;2310;49.978;8.742;2023-07-13T14:00:45;28.00;37.40
4596;DHT22;2310;49.978;8.742;2023-07-13T14:04:47;28.00;37.30
4596;DHT22;2310;49.978;8.742;2023-07-13T14:08:49;28.00;36.90
4596;DHT22;2310;49.978;8.742;2023-07-13T14:12:52;28.00;37.30
4596;DHT22;2310;49.978;8.742;2023-07-13T14:16:54;28.00;37.00
4596;DHT22;2310;49.978;8.742;2023-07-13T14:20:57;28.00;37.30
4596;DHT22;2310;49.978;8.742;2023-07-13T14:24:58;28.00;37.50
4596;DHT22;2310;49.978;8.742;2023-07-13T14:29:01;28.20;37.00
4596;DHT22;2310;49.978;8.742;2023-07-13T14:33:08;28.40;37.00
4596;DHT22;2310;49.978;8.742;2023-07-13T14:37:11;28.50;37.30
4596;DHT22;2310;49.978;8.742;2023-07-13T14:41:15;28.10;36.80
4596;DHT22;2310;49.978;8.742;2023-07-13T14:45:18;28.10;36.80
4596;DHT22;2310;49.978;8.742;2023-07-13T14:49:29;27.90;37.90
4596;DHT22;2310;49.978;8.742;2023-07-13T14:53:30;27.70;38.40
4596;DHT22;2310;49.978;8.742;2023-07-13T14:57:32;27.50;36.80
4596;DHT22;2310;49.978;8.742;2023-07-13T15:01:34;27.70;36.70
4596;DHT22;2310;49.978;8.742;2023-07-13T15:05:36;27.60;37.40
4596;DHT22;2310;49.978;8.742;2023-07-13T15:09:37;28.00;37.40
4596;DHT22;2310;49.978;8.742;2023-07-13T15:13:40;28.20;37.00
4596;DHT22;2310;49.978;8.742;2023-07-13T15:17:44;27.90;36.40
4596;DHT22;2310;49.978;8.742;2023-07-13T15:21:47;27.80;36.50
4596;DHT22;2310;49.978;8.742;2023-07-13T15:25:49;27.70;37.40
4596;DHT22;2310;49.978;8.742;2023-07-13T15:29:50;27.80;38.30
4596;DHT22;2310;49.978;8.742;2023-07-13T15:33:55;27.80;38.30
4596;DHT22;2310;49.978;8.742;2023-07-13T15:37:56;27.50;38.00
4596;DHT22;2310;49.978;8.742;2023-07-13T15:41:58;27.20;38.60
4596;DHT22;2310;49.978;8.742;2023-07-13T15:45:59;27.30;38.80
4596;DHT22;2310;49.978;8.742;2023-07-13T15:50:01;27.70;38.50
4596;DHT22;2310;49.978;8.742;2023-07-13T15:54:03;27.70;37.40
4596;DHT22;2310;49.978;8.742;2023-07-13T15:58:10;27.50;37.60
4596;DHT22;2310;49.978;8.742;2023-07-13T16:02:13;27.40;38.00
4596;DHT22;2310;49.978;8.742;2023-07-13T16:06:26;27.40;38.50
4596;DHT22;2310;49.978;8.742;2023-07-13T16:10:32;27.60;38.20
4596;DHT22;2310;49.978;8.742;2023-07-13T16:14:35;27.70;38.10
4596;DHT22;2310;49.978;8.742;2023-07-13T16:18:37;27.70;38.20
4596;DHT22;2310;49.978;8.742;2023-07-13T16:22:40;27.40;38.40
4596;DHT22;2310;49.978;8.742;2023-07-13T16:26:46;27.50;39.00
4596;DHT22;2310;49.978;8.742;2023-07-13T16:30:52;27.30;38.00
4596;DHT22;2310;49.978;8.742;2023-07-13T16:34:55;27.40;38.70
4596;DHT22;2310;49.978;8.742;2023-07-13T16:38:57;27.30;38.40
4596;DHT22;2310;49.978;8.742;2023-07-13T16:42:59;27.40;38.40
4596;DHT22;2310;49.978;8.742;2023-07-13T16:47:01;27.40;38.30
4596;DHT22;2310;49.978;8.742;2023-07-13T16:51:03;27.70;38.80
4596;DHT22;2310;49.978;8.742;2023-07-13T16:55:11;27.90;38.60
4596;DHT22;2310;49.978;8.742;2023-07-13T16:59:14;27.90;38.20
4596;DHT22;2310;49.978;8.742;2023-07-13T17:03:17;27.40;37.90
4596;DHT22;2310;49.978;8.742;2023-07-13T17:07:19;27.40;38.00
4596;DHT22;2310;49.978;8.742;2023-07-13T17:11:22;27.30;38.00
4596;DHT22;2310;49.978;8.742;2023-07-13T17:15:27;27.20;38.10
4596;DHT22;2310;49.978;8.742;2023-07-13T17:19:30;27.00;38.30
4596;DHT22;2310;49.978;8.742;2023-07-13T17:23:32;27.00;38.30
4596;DHT22;2310;49.978;8.742;2023-07-13T17:27:36;27.30;38.50
4596;DHT22;2310;49.978;8.742;2023-07-13T17:31:38;27.50;38.80
4596;DHT22;2310;49.978;8.742;2023-07-13T17:35:40;27.20;38.70
4596;DHT22;2310;49.978;8.742;2023-07-13T17:39:42;27.30;38.80
4596;DHT22;2310;49.978;8.742;2023-07-13T17:43:45;27.50;38.60
4596;DHT22;2310;49.978;8.742;2023-07-13T17:47:48;27.10;38.40
4596;DHT22;2310;49.978;8.742;2023-07-13T17:51:50;26.90;39.10
4596;DHT22;2310;49.978;8.742;2023-07-13T17:55:51;26.90;38.30
4596;DHT22;2310;49.978;8.742;2023-07-13T17:59:53;26.90;37.90
4596;DHT22;2310;49.978;8.742;2023-07-13T18:03:56;26.90;38.50
4596;DHT22;2310;49.978;8.742;2023-07-13T18:07:58;26.80;38.00
4596;DHT22;2310;49.978;8.742;2023-07-13T18:12:00;26.30;39.40
4596;DHT22;2310;49.978;8.742;2023-07-13T18:16:03;26.40;38.90
4596;DHT22;2310;49.978;8.742;2023-07-13T18:20:05;26.50;39.30
4596;DHT22;2310;49.978;8.742;2023-07-13T18:24:09;26.50;38.80
4596;DHT22;2310;49.978;8.742;2023-07-13T18:28:14;26.40;39.00
4596;DHT22;2310;49.978;8.742;2023-07-13T18:32:18;26.60;38.90
4596;DHT22;2310;49.978;8.742;2023-07-13T18:36:22;26.70;39.10
4596;DHT22;2310;49.978;8.742;2023-07-13T18:40:24;26.70;38.80
4596;DHT22;2310;49.978;8.742;2023-07-13T18:44:25;26.50;40.30
4596;DHT22;2310;49.978;8.742;2023-07-13T18:48:31;26.50;40.10
4596;DHT22;2310;49.978;8.742;2023-07-13T18:52:33;26.60;40.70
4596;DHT22;2310;49.978;8.742;2023-07-13T18:56:34;26.40;40.70
4596;DHT22;2310;49.978;8.742;2023-07-13T19:00:42;26.40;40.80
4596;DHT22;2310;49.978;8.742;2023-07-13T19:04:41;26.20;41.00
4596;DHT22;2310;49.978;8.742;2023-07-13T19:08:42;26.10;42.00
4596;DHT22;2310;49.978;8.742;2023-07-13T19:12:46;26.00;42.10
4596;DHT22;2310;49.978;8.742;2023-07-13T19:16:48;26.00;42.40
4596;DHT22;2310;49.978;8.742;2023-07-13T19:20:59;25.90;42.50
4596;DHT22;2310;49.978;8.742;2023-07-13T19:25:00;25.80;43.30
4596;DHT22;2310;49.978;8.742;2023-07-13T19:29:01;25.70;43.60
4596;DHT22;2310;49.978;8.742;2023-07-13T19:33:05;25.50;44.20
4596;DHT22;2310;49.978;8.742;2023-07-13T19:37:17;24.70;45.40
4596;DHT22;2310;49.978;8.742;2023-07-13T19:41:19;24.30;47.00
4596;DHT22;2310;49.978;8.742;2023-07-13T19:45:22;24.00;47.60
4596;DHT22;2310;49.978;8.742;2023-07-13T19:49:23;23.80;48.60
4596;DHT22;2310;49.978;8.742;2023-07-13T19:53:25;23.60;48.80
4596;DHT22;2310;49.978;8.742;2023-07-13T19:57:29;23.50;49.20
4596;DHT22;2310;49.978;8.742;2023-07-13T20:01:30;23.40;49.20
4596;DHT22;2310;49.978;8.742;2023-07-13T20:05:33;23.40;49.90
4596;DHT22;2310;49.978;8.742;2023-07-13T20:09:37;23.30;49.80
4596;DHT22;2310;49.978;8.742;2023-07-13T20:13:41;23.10;50.40
4596;DHT22;2310;49.978;8.742;2023-07-13T20:17:43;22.80;51.30
4596;DHT22;2310;49.978;8.742;2023-07-13T20:21:47;22.70;51.70
4596;DHT22;2310;49.978;8.742;2023-07-13T20:25:49;22.60;52.10
4596;DHT22;2310;49.978;8.742;2023-07-13T20:29:50;22.60;52.10
4596;DHT22;2310;49.978;8.742;2023-07-13T20:34:00;22.50;52.20
4596;DHT22;2310;49.978;8.742;2023-07-13T20:37:56;22.50;52.20
4596;DHT22;2310;49.978;8.742;2023-07-13T20:41:57;22.40;52.50
4596;DHT22;2310;49.978;8.742;2023-07-13T20:46:00;22.40;53.20
4596;DHT22;2310;49.978;8.742;2023-07-13T20:50:03;22.40;53.60
4596;DHT22;2310;49.978;8.742;2023-07-13T20:54:14;22.40;53.50
4596;DHT22;2310;49.978;8.742;2023-07-13T20:58:15;22.40;53.90
4596;DHT22;2310;49.978;8.742;2023-07-13T21:02:25;22.30;54.60
4596;DHT22;2310;49.978;8.742;2023-07-13T21:06:27;22.10;55.30
4596;DHT22;2310;49.978;8.742;2023-07-13T21:10:30;22.10;56.40
4596;DHT22;2310;49.978;8.742;2023-07-13T21:14:34;22.00;56.50
4596;DHT22;2310;49.978;8.742;2023-07-13T21:18:36;21.90;57.10
4596;DHT22;2310;49.978;8.742;2023-07-13T21:22:38;21.80;58.40
4596;DHT22;2310;49.978;8.742;2023-07-13T21:26:39;21.80;61.10
4596;DHT22;2310;49.978;8.742;2023-07-13T21:30:42;21.70;63.30
4596;DHT22;2310;49.978;8.742;2023-07-13T21:34:44;21.60;65.80
4596;DHT22;2310;49.978;8.742;2023-07-13T21:38:48;21.50;69.00
4596;DHT22;2310;49.978;8.742;2023-07-13T21:42:51;21.50;73.00
4596;DHT22;2310;49.978;8.742;2023-07-13T21:46:53;21.40;73.90
4596;DHT22;2310;49.978;8.742;2023-07-13T21:50:56;21.30;77.60
4596;DHT22;2310;49.978;8.742;2023-07-13T21:54:57;21.20;80.70
4596;DHT22;2310;49.978;8.742;2023-07-13T21:58:59;21.10;83.20
4596;DHT22;2310;49.978;8.742;2023-07-13T22:03:00;21.00;85.00
4596;DHT22;2310;49.978;8.742;2023-07-13T22:07:02;21.00;87.20
4596;DHT22;2310;49.978;8.742;2023-07-13T22:11:17;20.90;89.50
4596;DHT22;2310;49.978;8.742;2023-07-13T22:15:19;20.70;91.70
4596;DHT22;2310;49.978;8.742;2023-07-13T22:19:22;20.60;92.90
4596;DHT22;2310;49.978;8.742;2023-07-13T22:23:25;20.60;93.50
4596;DHT22;2310;49.978;8.742;2023-07-13T22:27:27;20.50;94.30
4596;DHT22;2310;49.978;8.742;2023-07-13T22:31:30;20.50;94.80
4596;DHT22;2310;49.978;8.742;2023-07-13T22:35:31;20.50;95.70
4596;DHT22;2310;49.978;8.742;2023-07-13T22:39:33;20.40;96.20
4596;DHT22;2310;49.978;8.742;2023-07-13T22:43:34;20.30;96.20
4596;DHT22;2310;49.978;8.742;2023-07-13T22:47:38;20.20;96.80
4596;DHT22;2310;49.978;8.742;2023-07-13T22:51:40;19.70;99.70
4596;DHT22;2310;49.978;8.742;2023-07-13T22:55:43;19.80;99.50
4596;DHT22;2310;49.978;8.742;2023-07-13T22:59:44;19.90;98.80
4596;DHT22;2310;49.978;8.742;2023-07-13T23:03:46;19.80;99.20
4596;DHT22;2310;49.978;8.742;2023-07-13T23:07:48;19.80;99.90
4596;DHT22;2310;49.978;8.742;2023-07-13T23:11:50;19.80;99.90
4596;DHT22;2310;49.978;8.742;2023-07-13T23:15:51;19.80;99.30
4596;DHT22;2310;49.978;8.742;2023-07-13T23:19:53;19.90;99.90
4596;DHT22;2310;49.978;8.742;2023-07-13T23:23:54;19.70;98.60
4596;DHT22;2310;49.978;8.742;2023-07-13T23:27:56;19.70;97.60
4596;DHT22;2310;49.978;8.742;2023-07-13T23:32:00;19.80;97.50
4596;DHT22;2310;49.978;8.742;2023-07-13T23:36:01;19.90;94.80
4596;DHT22;2310;49.978;8.742;2023-07-13T23:40:18;20.00;93.70
4596;DHT22;2310;49.978;8.742;2023-07-13T23:44:20;19.90;95.20
4596;DHT22;2310;49.978;8.742;2023-07-13T23:48:21;19.90;96.60
4596;DHT22;2310;49.978;8.742;2023-07-13T23:52:22;19.90;96.70
4596;DHT22;2310;49.978;8.742;2023-07-13T23:56:24;20.00;96.20
